Time;durP1;ratioP1;P1;durP2;ratioP2;P2;SDS_P1;SDS_P2;PMS_P1;PMS_P2;Temp;Humidity;BMP_temperature;BMP_pressure;BME280_temperature;BME280_humidity;BME280_pressure;Samples;Min_cycle;Max_cycle;Signal;HPM_P1;HPM_P2
2023/07/01 00:02:12;;;;;;;4.85;3.10;;;;;;;20.49;73.31;99236.53;5093626;28;20031;-78
2023/07/01 00:04:38;;;;;;;3.05;2.35;;;;;;;20.50;73.15;99239.09;5096220;28;20027;-79
2023/07/01 00:07:04;;;;;;;5.47;2.75;;;;;;;20.47;72.97;99241.97;5104151;28;20035;-78
2023/07/01 00:09:30;;;;;;;5.00;3.30;;;;;;;20.53;73.52;99264.84;5097968;28;20031;-79
2023/07/01 00:11:55;;;;;;;3.17;2.00;;;;;;;20.46;73.07;99245.59;5088125;28;20417;-80
2023/07/01 00:14:21;;;;;;;5.25;3.38;;;;;;;20.50;73.04;99273.94;5093266;28;20033;-80
2023/07/01 00:16:46;;;;;;;2.95;1.55;;;;;;;20.38;73.20;99278.22;5093374;28;20064;-78
2023/07/01 00:19:11;;;;;;;4.70;2.70;;;;;;;20.26;73.88;99260.25;5092316;28;21827;-80
2023/07/01 00:21:37;;;;;;;4.72;2.30;;;;;;;20.50;73.43;99265.06;5096777;28;20158;-79
2023/07/01 00:24:03;;;;;;;4.93;2.65;;;;;;;20.42;73.60;99264.66;5080351;28;20049;-78
2023/07/01 00:26:28;;;;;;;2.53;1.88;;;;;;;20.44;73.38;99262.75;5095236;28;20070;-80
2023/07/01 00:28:54;;;;;;;2.47;2.05;;;;;;;20.25;74.42;99263.00;5096660;28;20055;-79
2023/07/01 00:31:19;;;;;;;2.10;1.58;;;;;;;20.10;74.00;99222.00;5102105;28;20019;-79
2023/07/01 00:33:45;;;;;;;3.88;2.53;;;;;;;20.14;74.55;99242.25;5095512;28;20406;-79
2023/07/01 00:36:10;;;;;;;4.22;2.50;;;;;;;20.29;74.13;99251.16;5103043;28;20035;-80
2023/07/01 00:38:36;;;;;;;3.20;1.85;;;;;;;20.20;74.35;99228.50;5096049;28;20110;-80
2023/07/01 00:41:01;;;;;;;3.95;2.40;;;;;;;20.34;74.75;99266.00;5094024;28;20031;-79
2023/07/01 00:43:27;;;;;;;5.38;2.42;;;;;;;20.46;74.31;99264.34;5098046;28;20031;-79
2023/07/01 00:45:52;;;;;;;3.85;2.35;;;;;;;20.54;73.56;99256.72;5091458;28;20048;-79
2023/07/01 00:48:25;;;;;;;3.40;2.80;;;;;;;20.27;74.43;99251.25;5095630;28;20031;-79
2023/07/01 00:50:52;;;;;;;3.58;2.40;;;;;;;20.55;73.49;99270.97;5101134;28;20050;-79
2023/07/01 00:53:18;;;;;;;4.47;2.28;;;;;;;20.35;73.70;99248.97;5082869;28;20620;-79
2023/07/01 00:55:44;;;;;;;4.72;3.28;;;;;;;20.23;73.74;99263.13;5090620;28;20024;-79
2023/07/01 00:58:10;;;;;;;2.35;1.50;;;;;;;20.31;73.81;99279.59;5091475;28;20085;-79
2023/07/01 01:00:36;;;;;;;4.13;2.17;;;;;;;20.30;74.24;99282.34;5100696;28;20485;-79
2023/07/01 01:03:30;;;;;;;4.22;2.63;;;;;;;20.11;74.33;99246.00;5096394;28;20043;-80
2023/07/01 01:06:01;;;;;;;11.35;2.90;;;;;;;20.18;74.82;99279.47;5073869;28;20395;-79
2023/07/01 01:08:41;;;;;;;2.60;1.77;;;;;;;20.09;75.19;99280.03;5090974;28;20036;-79
2023/07/01 01:11:09;;;;;;;1.98;1.48;;;;;;;19.80;75.32;99237.16;5090852;28;20502;-79
2023/07/01 01:13:35;;;;;;;4.65;2.25;;;;;;;19.87;75.76;99253.72;5108453;28;20057;-79
2023/07/01 01:16:02;;;;;;;3.03;2.03;;;;;;;19.95;75.61;99258.59;5090343;28;20472;-79
2023/07/01 01:18:31;;;;;;;4.80;3.00;;;;;;;19.73;75.37;99225.06;5111049;28;20050;-79
2023/07/01 01:20:57;;;;;;;5.70;2.72;;;;;;;19.93;75.51;99260.53;5110493;28;20034;-79
2023/07/01 01:23:27;;;;;;;3.88;2.22;;;;;;;19.91;75.08;99273.09;5110726;28;20039;-79
2023/07/01 01:26:06;;;;;;;2.72;1.92;;;;;;;19.71;75.05;99223.44;5103999;28;20039;-80
2023/07/01 01:28:34;;;;;;;4.60;3.08;;;;;;;19.84;75.72;99262.78;5100555;28;20034;-79
2023/07/01 01:30:59;;;;;;;3.75;2.28;;;;;;;19.76;75.61;99246.28;5110920;28;20042;-79
2023/07/01 01:33:25;;;;;;;3.88;2.65;;;;;;;19.68;75.19;99227.19;5110767;28;20408;-79
2023/07/01 01:35:52;;;;;;;2.40;2.05;;;;;;;19.84;75.11;99241.38;5110668;28;20031;-80
2023/07/01 01:38:21;;;;;;;12.05;2.03;;;;;;;19.84;75.25;99241.38;5108928;28;20031;-79
2023/07/01 01:40:56;;;;;;;3.58;2.25;;;;;;;19.65;75.40;99212.16;5074639;28;20039;-79
2023/07/01 01:43:35;;;;;;;3.15;1.63;;;;;;;19.98;74.76;99261.09;5090628;28;20093;-79
2023/07/01 01:46:02;;;;;;;3.88;2.92;;;;;;;20.04;74.96;99260.72;5090348;28;20052;-79
2023/07/01 01:48:28;;;;;;;4.28;2.85;;;;;;;19.79;75.19;99234.59;5090183;28;20089;-79
2023/07/01 01:50:56;;;;;;;2.88;2.03;;;;;;;19.93;75.25;99263.19;5090183;28;20028;-79
2023/07/01 01:53:23;;;;;;;4.35;2.20;;;;;;;20.04;74.82;99266.06;5090107;28;20093;-79
2023/07/01 01:55:50;;;;;;;2.65;1.98;;;;;;;19.89;74.65;99267.84;5101692;28;20036;-79
2023/07/01 01:58:16;;;;;;;6.05;3.20;;;;;;;19.87;74.94;99274.28;5111139;28;20031;-79
2023/07/01 02:00:42;;;;;;;3.25;1.90;;;;;;;19.76;75.46;99270.38;5110854;28;20024;-79
2023/07/01 02:03:07;;;;;;;3.60;2.33;;;;;;;19.39;75.82;99219.06;5110613;28;20345;-79
2023/07/01 02:05:32;;;;;;;5.00;2.05;;;;;;;19.56;75.51;99244.81;5108340;28;20038;-79
2023/07/01 02:08:02;;;;;;;4.78;2.63;;;;;;;19.52;74.97;99250.44;5113737;28;20121;-79
2023/07/01 02:10:28;;;;;;;4.35;3.05;;;;;;;19.45;75.71;99261.50;5114372;28;20059;-79
2023/07/01 02:12:53;;;;;;;4.05;2.80;;;;;;;19.23;75.93;99261.88;5114394;28;20032;-79
2023/07/01 02:15:19;;;;;;;3.65;2.53;;;;;;;19.33;75.87;99284.44;5114350;28;20077;-79
2023/07/01 02:17:44;;;;;;;3.90;2.50;;;;;;;19.36;75.88;99287.91;5112491;28;20027;-79
2023/07/01 02:20:11;;;;;;;5.50;1.95;;;;;;;19.45;75.42;99282.88;5114000;28;20493;-80
2023/07/01 02:22:37;;;;;;;3.03;2.22;;;;;;;19.55;75.88;99298.41;5111546;28;20093;-80
2023/07/01 02:25:03;;;;;;;2.83;2.03;;;;;;;19.41;76.13;99273.31;5093953;28;20523;-79
2023/07/01 02:27:30;;;;;;;4.40;2.30;;;;;;;19.48;76.01;99285.38;5076800;28;20486;-79
2023/07/01 02:29:56;;;;;;;7.93;3.10;;;;;;;19.46;75.51;99271.25;5080220;28;20039;-79
2023/07/01 02:32:21;;;;;;;3.67;2.70;;;;;;;19.46;75.42;99262.34;5114145;28;20038;-79
2023/07/01 02:34:47;;;;;;;7.00;2.47;;;;;;;19.43;75.19;99262.53;5113373;28;20152;-79
2023/07/01 02:37:12;;;;;;;5.15;2.10;;;;;;;19.36;75.46;99250.47;5113869;28;20044;-80
2023/07/01 02:39:39;;;;;;;4.85;3.28;;;;;;;19.49;75.80;99295.13;5113933;28;20027;-80
2023/07/01 02:42:05;;;;;;;4.78;2.60;;;;;;;19.32;75.61;99249.78;5111989;28;20142;-80
2023/07/01 02:44:31;;;;;;;5.57;3.03;;;;;;;19.29;76.85;99257.97;5113222;28;20051;-79
2023/07/01 02:46:56;;;;;;;2.85;1.90;;;;;;;19.31;76.72;99256.09;5113811;28;20034;-79
2023/07/01 02:49:22;;;;;;;6.07;2.97;;;;;;;19.47;76.33;99280.97;5113603;28;20024;-79
2023/07/01 02:51:47;;;;;;;3.58;1.75;;;;;;;19.42;76.52;99282.22;5113448;28;20038;-79
2023/07/01 02:54:13;;;;;;;3.67;2.22;;;;;;;19.24;77.11;99252.03;5111770;28;20462;-79
2023/07/01 02:56:38;;;;;;;3.08;2.30;;;;;;;19.32;77.69;99284.53;5113794;28;20509;-80
2023/07/01 02:59:04;;;;;;;3.88;2.65;;;;;;;19.32;77.11;99264.03;5094733;28;20035;-79
2023/07/01 03:01:29;;;;;;;2.55;2.22;;;;;;;19.12;78.44;99254.47;5113470;28;20036;-79
2023/07/01 03:03:55;;;;;;;6.57;2.85;;;;;;;19.06;77.00;99253.94;5111260;28;20057;-79
2023/07/01 03:06:21;;;;;;;3.05;1.88;;;;;;;18.77;78.68;99256.44;5113107;28;20032;-80
2023/07/01 03:08:46;;;;;;;3.33;2.75;;;;;;;18.93;78.68;99272.50;5112947;28;20106;-79
2023/07/01 03:11:12;;;;;;;4.13;3.25;;;;;;;18.89;78.28;99242.44;5113455;28;20047;-80
2023/07/01 03:13:37;;;;;;;5.05;3.05;;;;;;;19.12;78.38;99273.19;5106050;27;20035;-80
2023/07/01 03:16:08;;;;;;;3.30;1.92;;;;;;;19.25;78.21;99277.84;5099643;28;20023;-80
2023/07/01 03:18:34;;;;;;;7.65;3.05;;;;;;;18.97;78.29;99233.97;5112055;28;20031;-79
2023/07/01 03:21:00;;;;;;;4.25;2.67;;;;;;;19.21;78.13;99252.22;5113449;28;20105;-79
2023/07/01 03:23:30;;;;;;;20.35;3.67;;;;;;;19.32;78.42;99279.19;5103395;28;20123;-80
2023/07/01 03:25:56;;;;;;;3.92;2.60;;;;;;;19.35;78.66;99275.50;5092688;28;20474;-80
2023/07/01 03:28:21;;;;;;;3.72;2.70;;;;;;;19.42;78.40;99268.84;5093675;28;20082;-80
2023/07/01 03:30:47;;;;;;;2.92;2.22;;;;;;;19.53;78.58;99261.03;5092553;28;20054;-79
2023/07/01 03:33:12;;;;;;;3.72;2.38;;;;;;;19.51;78.58;99252.25;5092033;28;20035;-79
2023/07/01 03:35:38;;;;;;;3.28;2.38;;;;;;;19.62;77.98;99251.63;5109571;28;20500;-80
2023/07/01 03:38:04;;;;;;;8.88;2.80;;;;;;;19.85;76.88;99243.09;5110527;28;20561;-80
2023/07/01 03:40:30;;;;;;;3.72;2.58;;;;;;;19.93;77.56;99271.22;5094536;28;20111;-80
2023/07/01 03:42:56;;;;;;;5.28;3.30;;;;;;;19.86;76.58;99249.28;5089577;28;20391;-80
2023/07/01 03:45:22;;;;;;;4.80;2.47;;;;;;;19.81;77.46;99256.75;5092212;28;20051;-79
2023/07/01 03:47:47;;;;;;;18.17;3.50;;;;;;;19.81;77.44;99224.63;5108151;28;20024;-79
2023/07/01 03:50:14;;;;;;;4.05;2.08;;;;;;;19.93;77.50;99241.78;5091187;28;20024;-80
2023/07/01 03:52:41;;;;;;;2.58;2.15;;;;;;;20.11;77.35;99251.38;5092369;28;20034;-79
2023/07/01 03:55:14;;;;;;;2.92;2.38;;;;;;;20.35;76.69;99253.47;5092472;28;20481;-79
2023/07/01 03:57:40;;;;;;;6.35;3.63;;;;;;;20.48;75.53;99270.50;5091998;28;20047;-80
2023/07/01 04:00:17;;;;;;;4.47;2.55;;;;;;;20.48;74.66;99251.75;5092524;28;20270;-80
2023/07/01 04:02:43;;;;;;;4.13;1.95;;;;;;;20.49;73.91;99260.63;5092243;28;20035;-81
2023/07/01 04:05:11;;;;;;;4.70;2.45;;;;;;;20.43;72.19;99251.16;5091407;28;20032;-80
2023/07/01 04:07:37;;;;;;;4.78;3.13;;;;;;;20.21;71.16;99262.34;5110431;28;20019;-80
2023/07/01 04:10:06;;;;;;;4.60;2.20;;;;;;;20.25;71.94;99285.31;5110306;28;20036;-80
2023/07/01 04:12:35;;;;;;;4.75;2.95;;;;;;;20.07;72.24;99271.25;5075576;28;20040;-80
2023/07/01 04:15:01;;;;;;;6.60;2.80;;;;;;;20.36;71.51;99281.97;5095142;28;20043;-79
2023/07/01 04:17:28;;;;;;;2.30;1.85;;;;;;;20.33;70.52;99279.50;5111763;28;20035;-79
2023/07/01 04:19:54;;;;;;;4.32;2.55;;;;;;;20.26;71.39;99241.50;5111889;28;20039;-79
2023/07/01 04:22:20;;;;;;;5.50;2.67;;;;;;;20.43;69.87;99227.06;5111530;28;20034;-79
2023/07/01 04:24:45;;;;;;;1.90;1.58;;;;;;;20.55;70.71;99270.97;5111640;28;20032;-80
2023/07/01 04:27:11;;;;;;;4.18;2.40;;;;;;;20.42;71.39;99273.56;5110532;28;20110;-79
2023/07/01 04:29:36;;;;;;;3.83;2.75;;;;;;;20.36;71.46;99276.63;5110648;28;20027;-79
2023/07/01 04:32:02;;;;;;;4.03;2.60;;;;;;;20.67;70.87;99272.91;5111569;28;20089;-79
2023/07/01 04:34:27;;;;;;;2.28;1.85;;;;;;;20.85;71.61;99286.06;5093917;28;20040;-79
2023/07/01 04:36:53;;;;;;;3.10;2.55;;;;;;;20.69;71.33;99246.84;5095104;28;20026;-79
2023/07/01 04:39:21;;;;;;;5.03;3.13;;;;;;;21.01;70.65;99299.38;5104959;28;20027;-79
2023/07/01 04:41:47;;;;;;;6.60;3.00;;;;;;;21.01;69.82;99278.78;5110573;28;20031;-79
2023/07/01 04:44:13;;;;;;;5.93;3.45;;;;;;;21.26;69.40;99306.69;5091313;28;20031;-79
2023/07/01 04:46:38;;;;;;;6.93;3.28;;;;;;;20.97;68.99;99260.31;5092222;28;20444;-79
2023/07/01 04:49:04;;;;;;;5.72;3.83;;;;;;;21.43;69.47;99298.38;5091240;28;20055;-79
2023/07/01 04:51:29;;;;;;;4.07;2.72;;;;;;;21.37;68.16;99280.00;5091278;28;20035;-79
2023/07/01 04:53:55;;;;;;;4.15;2.97;;;;;;;21.41;68.04;99257.38;5090702;28;20118;-79
2023/07/01 04:56:23;;;;;;;11.20;2.28;;;;;;;21.81;66.57;99312.88;5096177;28;20450;-80
2023/07/01 04:58:49;;;;;;;4.47;2.70;;;;;;;21.80;65.85;99305.81;5109824;28;20055;-79
2023/07/01 05:01:15;;;;;;;5.47;3.10;;;;;;;21.78;66.68;99297.00;5111855;28;20481;-79
2023/07/01 05:03:40;;;;;;;4.72;2.50;;;;;;;22.00;66.31;99310.69;5110496;28;20059;-79
2023/07/01 05:06:06;;;;;;;4.18;3.25;;;;;;;22.16;67.04;99315.84;5092399;28;20031;-78
2023/07/01 05:08:31;;;;;;;6.22;2.90;;;;;;;22.33;65.27;99290.53;5104481;28;20084;-80
2023/07/01 05:10:56;;;;;;;6.05;2.92;;;;;;;22.42;63.46;99304.31;5090960;28;20042;-79
2023/07/01 05:13:22;;;;;;;4.30;2.45;;;;;;;21.88;63.84;99275.78;5090955;28;20489;-79
2023/07/01 05:15:47;;;;;;;3.40;2.70;;;;;;;22.05;65.08;99269.25;5090532;28;20028;-81
2023/07/01 05:18:13;;;;;;;3.03;1.75;;;;;;;22.33;64.78;99260.13;5094167;28;20111;-79
2023/07/01 05:20:39;;;;;;;3.05;1.88;;;;;;;22.87;63.78;99300.16;5110069;28;20120;-79
2023/07/01 05:23:04;;;;;;;3.95;2.60;;;;;;;22.93;62.55;99281.88;5092750;28;20029;-79
2023/07/01 05:25:30;;;;;;;5.47;2.70;;;;;;;23.03;63.54;99274.81;5090845;28;20032;-79
2023/07/01 05:27:55;;;;;;;8.35;2.63;;;;;;;23.60;61.20;99281.41;5090213;28;20052;-79
2023/07/01 05:30:21;;;;;;;4.32;2.58;;;;;;;23.54;60.04;99279.16;5090186;28;20418;-79
2023/07/01 05:32:46;;;;;;;3.42;2.70;;;;;;;23.72;59.78;99275.06;5090968;28;20024;-80
2023/07/01 05:35:12;;;;;;;4.20;2.85;;;;;;;24.22;59.61;99269.50;5088764;28;20043;-81
2023/07/01 05:37:37;;;;;;;4.32;2.35;;;;;;;24.02;57.83;99268.34;5090648;28;20028;-80
2023/07/01 05:40:03;;;;;;;2.72;2.00;;;;;;;24.08;58.10;99285.84;5099243;28;20043;-80
2023/07/01 05:42:29;;;;;;;2.83;1.92;;;;;;;23.70;57.13;99286.97;5090769;28;20054;-80
2023/07/01 05:44:54;;;;;;;4.43;2.40;;;;;;;23.55;59.88;99276.34;5084109;28;20043;-81
2023/07/01 05:47:20;;;;;;;5.60;2.30;;;;;;;23.85;58.82;99274.16;5110445;28;20039;-81
2023/07/01 05:49:45;;;;;;;3.17;2.20;;;;;;;24.00;56.87;99274.81;5098960;28;20031;-80
2023/07/01 05:52:11;;;;;;;6.15;2.75;;;;;;;24.74;54.52;99263.66;5071402;28;20066;-80
2023/07/01 05:54:36;;;;;;;2.72;1.98;;;;;;;24.98;53.99;99272.44;5102966;28;20028;-80
2023/07/01 05:57:02;;;;;;;2.20;1.52;;;;;;;25.45;53.89;99284.88;5107041;28;20023;-80
2023/07/01 05:59:27;;;;;;;2.67;1.73;;;;;;;25.71;53.62;99263.75;5108817;28;20515;-80
2023/07/01 06:01:53;;;;;;;2.33;1.88;;;;;;;25.69;50.86;99271.16;5097767;28;20442;-81
2023/07/01 06:04:18;;;;;;;3.78;2.33;;;;;;;26.19;50.04;99282.19;5100303;28;20487;-80
2023/07/01 06:06:44;;;;;;;2.60;2.17;;;;;;;25.91;50.56;99275.56;5104430;28;20027;-81
2023/07/01 06:09:10;;;;;;;1.83;1.40;;;;;;;25.88;51.54;99287.50;5104340;28;20138;-80
2023/07/01 06:11:35;;;;;;;2.75;1.75;;;;;;;26.20;50.40;99285.75;5103327;28;20027;-80
2023/07/01 06:14:01;;;;;;;2.03;1.67;;;;;;;25.72;48.97;99260.09;5103427;28;20319;-81
2023/07/01 06:16:26;;;;;;;3.13;2.08;;;;;;;26.10;49.52;99274.88;5077062;28;20028;-81
2023/07/01 06:18:52;;;;;;;3.40;1.65;;;;;;;26.63;49.21;99271.16;5100492;28;20027;-81
2023/07/01 06:21:19;;;;;;;2.13;1.65;;;;;;;26.44;50.67;99272.78;5098567;28;20378;-81
2023/07/01 06:23:44;;;;;;;3.03;2.28;;;;;;;26.53;50.02;99262.16;5098899;28;20100;-81
2023/07/01 06:26:10;;;;;;;3.90;1.80;;;;;;;26.80;49.09;99285.91;5099061;28;20618;-83
2023/07/01 06:28:35;;;;;;;2.88;1.65;;;;;;;26.50;50.90;99257.88;5092553;28;20055;-80
2023/07/01 06:31:01;;;;;;;3.92;2.10;;;;;;;27.35;47.82;99284.66;5089408;28;20020;-81
2023/07/01 06:33:27;;;;;;;3.20;2.30;;;;;;;27.91;45.57;99283.94;5090213;28;20034;-83
2023/07/01 06:35:52;;;;;;;3.85;1.90;;;;;;;28.12;45.61;99288.38;5099052;28;20128;-81
2023/07/01 06:38:17;;;;;;;5.32;2.40;;;;;;;28.10;46.70;99287.66;5103591;28;20043;-80
2023/07/01 06:40:43;;;;;;;2.30;1.65;;;;;;;28.14;47.56;99297.22;5094756;28;20508;-81
2023/07/01 06:43:09;;;;;;;3.83;1.80;;;;;;;28.41;45.14;99293.75;5099320;28;20066;-80
2023/07/01 06:45:34;;;;;;;2.60;1.63;;;;;;;28.23;45.23;99293.63;5100222;28;20434;-82
2023/07/01 06:48:01;;;;;;;2.28;1.65;;;;;;;27.92;46.28;99290.25;5092940;28;20032;-83
2023/07/01 06:50:26;;;;;;;3.00;2.08;;;;;;;28.45;45.16;99278.84;5097767;28;20051;-85
2023/07/01 06:52:52;;;;;;;2.83;1.83;;;;;;;27.95;43.87;99268.25;5103065;28;20062;-84
2023/07/01 06:55:18;;;;;;;5.97;2.40;;;;;;;27.99;46.20;99258.84;5097085;28;20028;-84
2023/07/01 06:57:43;;;;;;;3.67;1.95;;;;;;;28.46;44.04;99264.31;5098801;28;20043;-83
2023/07/01 07:00:12;;;;;;;2.90;1.55;;;;;;;28.01;46.81;99260.44;5107905;28;20020;-83
2023/07/01 07:02:38;;;;;;;1.77;1.58;;;;;;;28.68;45.82;99235.97;5079208;27;20181;-82
2023/07/01 07:05:04;;;;;;;2.25;1.60;;;;;;;29.64;42.46;99273.53;5101339;28;20549;-82
2023/07/01 07:07:30;;;;;;;3.13;1.90;;;;;;;29.50;41.51;99257.75;5110589;28;20028;-83
2023/07/01 07:09:55;;;;;;;1.63;1.17;;;;;;;28.60;43.11;99264.88;5098137;28;20028;-83
2023/07/01 07:12:21;;;;;;;3.17;1.98;;;;;;;29.08;42.75;99263.75;5107496;28;20028;-82
2023/07/01 07:14:46;;;;;;;2.22;1.63;;;;;;;29.11;43.01;99242.56;5111113;27;20417;-83
2023/07/01 07:17:12;;;;;;;1.98;1.73;;;;;;;28.89;43.75;99268.28;5102671;28;20028;-83
2023/07/01 07:19:37;;;;;;;2.20;1.77;;;;;;;29.15;43.64;99237.72;5111111;28;20051;-81
2023/07/01 07:22:04;;;;;;;3.83;1.90;;;;;;;30.02;41.24;99232.56;5110984;28;20039;-81
2023/07/01 07:24:29;;;;;;;3.25;1.85;;;;;;;29.93;41.53;99245.25;5112104;28;20042;-81
2023/07/01 07:26:57;;;;;;;4.90;1.70;;;;;;;30.73;38.68;99251.53;5113474;28;20028;-81
2023/07/01 07:29:24;;;;;;;3.30;2.28;;;;;;;31.06;39.31;99247.06;5112582;28;20089;-82
2023/07/01 07:31:50;;;;;;;3.35;1.70;;;;;;;30.55;40.60;99219.78;5113342;28;20382;-80
2023/07/01 07:34:15;;;;;;;3.45;1.23;;;;;;;30.63;39.02;99227.13;5112624;28;20061;-81
2023/07/01 07:36:41;;;;;;;2.50;1.42;;;;;;;30.45;39.26;99230.81;5112932;28;20058;-81
2023/07/01 07:39:06;;;;;;;8.30;1.95;;;;;;;30.99;40.75;99235.16;5112510;28;20073;-81
2023/07/01 07:41:32;;;;;;;2.05;1.45;;;;;;;30.46;43.03;99224.38;5112751;28;20040;-81
2023/07/01 07:43:57;;;;;;;1.60;1.17;;;;;;;31.64;41.85;99248.03;5112863;28;20466;-81
2023/07/01 07:46:24;;;;;;;2.92;1.50;;;;;;;31.00;40.63;99234.09;5112327;28;20057;-82
2023/07/01 07:48:49;;;;;;;1.92;1.50;;;;;;;31.82;38.64;99215.13;5112509;28;20036;-82
2023/07/01 07:51:15;;;;;;;2.65;1.60;;;;;;;32.49;37.50;99233.97;5112306;28;20043;-81
2023/07/01 07:53:40;;;;;;;2.95;1.98;;;;;;;32.09;36.38;99259.44;5112358;28;20028;-81
2023/07/01 07:56:06;;;;;;;2.47;1.63;;;;;;;31.48;37.18;99226.19;5111861;28;20032;-81
2023/07/01 07:58:31;;;;;;;2.83;1.45;;;;;;;31.34;36.02;99223.13;5112584;28;20485;-82
2023/07/01 08:00:56;;;;;;;3.78;1.73;;;;;;;31.83;36.79;99230.47;5112273;28;20028;-82
2023/07/01 08:03:22;;;;;;;3.83;1.83;;;;;;;31.07;36.38;99218.81;5093676;28;20122;-82
2023/07/01 08:05:50;;;;;;;1.73;1.50;;;;;;;31.81;34.36;99218.91;5111887;28;20050;-82
2023/07/01 08:08:16;;;;;;;4.78;1.98;;;;;;;32.22;35.96;99224.31;5112145;28;20103;-81
2023/07/01 08:10:45;;;;;;;9.65;2.95;;;;;;;31.88;36.96;99224.50;5112234;28;20028;-81
2023/07/01 08:13:14;;;;;;;2.72;1.67;;;;;;;32.06;36.43;99197.06;5112106;28;20424;-82
2023/07/01 08:15:42;;;;;;;3.42;2.63;;;;;;;32.93;34.35;99196.25;5112067;28;20028;-83
2023/07/01 08:18:08;;;;;;;2.08;1.30;;;;;;;32.26;36.76;99208.47;5111619;28;20038;-82
2023/07/01 08:20:33;;;;;;;1.85;1.10;;;;;;;32.51;37.76;99222.88;5112171;28;20080;-83
2023/07/01 08:22:59;;;;;;;1.75;1.23;;;;;;;32.46;35.27;99190.63;5112283;28;20080;-84
2023/07/01 08:25:24;;;;;;;4.18;1.98;;;;;;;32.97;34.32;99179.31;5112498;28;20047;-83
2023/07/01 08:27:50;;;;;;;1.67;1.23;;;;;;;33.10;32.79;99194.25;5107436;27;20067;-81
2023/07/01 08:30:16;;;;;;;3.28;1.92;;;;;;;32.71;32.62;99187.84;5105629;28;20039;-81
2023/07/01 08:32:41;;;;;;;3.65;1.42;;;;;;;32.97;31.80;99208.53;5094646;28;20417;-84
2023/07/01 08:35:07;;;;;;;1.85;1.42;;;;;;;32.63;32.35;99190.59;5095340;28;20058;-82
2023/07/01 08:37:33;;;;;;;2.03;1.30;;;;;;;32.84;32.99;99174.47;5080286;28;20077;-85
2023/07/01 08:39:59;;;;;;;2.50;1.38;;;;;;;33.32;31.44;99195.31;5096182;28;20874;-80
2023/07/01 08:42:35;;;;;;;4.28;2.10;;;;;;;33.76;30.68;99199.28;5101220;28;20074;-83
2023/07/01 08:45:02;;;;;;;2.78;1.70;;;;;;;34.00;30.90;99149.81;5102322;28;20155;-81
2023/07/01 08:47:29;;;;;;;2.88;2.10;;;;;;;34.22;31.56;99180.00;5099156;28;20082;-83
2023/07/01 08:49:57;;;;;;;3.53;1.90;;;;;;;34.08;33.55;99184.44;5087413;28;20062;-84
2023/07/01 08:52:31;;;;;;;22.67;2.20;;;;;;;34.46;31.95;99200.78;5094851;28;20077;-81
2023/07/01 08:54:57;;;;;;;2.28;1.67;;;;;;;33.78;33.57;99183.53;5092937;28;20043;-83
2023/07/01 08:57:23;;;;;;;2.03;1.52;;;;;;;34.22;33.31;99164.44;5094027;28;20118;-82
2023/07/01 08:59:49;;;;;;;2.85;1.80;;;;;;;34.05;32.48;99190.28;5090987;28;20032;-83
2023/07/01 09:02:15;;;;;;;3.70;1.65;;;;;;;34.12;32.63;99187.63;5090061;28;20048;-81
2023/07/01 09:04:41;;;;;;;3.33;1.63;;;;;;;34.29;32.08;99170.00;5094606;28;20079;-84
2023/07/01 09:07:09;;;;;;;5.22;1.50;;;;;;;34.09;32.04;99156.00;5092970;28;20036;-87
2023/07/01 09:09:34;;;;;;;4.65;1.60;;;;;;;33.98;33.81;99175.63;5094952;28;20028;-82
2023/07/01 09:11:59;;;;;;;2.90;1.48;;;;;;;33.62;32.58;99163.47;5096045;28;20038;-83
2023/07/01 09:14:25;;;;;;;2.80;1.88;;;;;;;33.83;34.99;99172.88;5070984;28;20150;-83
2023/07/01 09:16:50;;;;;;;1.60;1.40;;;;;;;34.22;34.17;99161.69;5089072;28;20035;-83
2023/07/01 09:19:21;;;;;;;2.17;1.45;;;;;;;34.70;31.11;99160.44;5090390;28;20486;-83
2023/07/01 09:21:46;;;;;;;2.42;1.70;;;;;;;34.70;31.71;99158.53;5090822;27;20028;-83
2023/07/01 09:24:12;;;;;;;2.22;1.65;;;;;;;34.64;31.90;99142.03;5093997;28;20425;-83
2023/07/01 09:26:38;;;;;;;2.60;1.58;;;;;;;34.51;32.07;99153.66;5090258;28;20059;-84
2023/07/01 09:29:09;;;;;;;1.17;0.90;;;;;;;34.04;31.46;99101.03;5091864;28;20027;-83
2023/07/01 09:31:48;;;;;;;3.05;1.83;;;;;;;34.04;31.09;99110.06;5087953;28;20043;-84
2023/07/01 09:34:16;;;;;;;2.72;1.27;;;;;;;34.05;32.89;99121.88;5093550;28;20026;-84
2023/07/01 09:36:42;;;;;;;2.05;1.40;;;;;;;33.87;32.15;99133.19;5090524;28;20028;-82
2023/07/01 09:39:08;;;;;;;2.63;1.63;;;;;;;34.22;31.15;99119.81;5093077;28;20036;-83
2023/07/01 09:41:34;;;;;;;1.52;1.15;;;;;;;34.09;32.46;99139.59;5092664;28;20032;-84
2023/07/01 09:44:00;;;;;;;2.97;1.65;;;;;;;33.55;33.57;99081.38;5091169;28;20035;-84
2023/07/01 09:46:43;;;;;;;4.60;1.58;;;;;;;33.72;33.70;99120.34;5092728;28;20040;-82
2023/07/01 09:49:08;;;;;;;2.33;1.38;;;;;;;33.50;34.07;99082.94;5089639;28;20136;-84
2023/07/01 09:51:45;;;;;;;7.18;2.05;;;;;;;33.78;34.33;99117.91;5089386;28;20035;-83
2023/07/01 09:54:28;;;;;;;2.33;1.70;;;;;;;34.19;35.71;99104.59;5087797;28;20035;-83
2023/07/01 09:56:55;;;;;;;3.47;1.63;;;;;;;34.03;33.57;99118.47;5084809;28;20019;-82
2023/07/01 09:59:22;;;;;;;3.47;1.70;;;;;;;33.69;32.69;99104.28;5090690;28;20038;-83
2023/07/01 10:01:50;;;;;;;2.60;1.55;;;;;;;33.66;33.48;99115.59;5090753;28;20498;-82
2023/07/01 10:04:19;;;;;;;3.10;1.27;;;;;;;33.40;34.04;99096.91;5090389;28;20050;-82
2023/07/01 10:06:45;;;;;;;3.15;1.40;;;;;;;33.69;32.34;99092.50;5071159;28;20447;-82
2023/07/01 10:09:10;;;;;;;4.50;1.77;;;;;;;34.17;33.26;99094.88;5072307;28;20093;-82
2023/07/01 10:11:37;;;;;;;1.92;1.60;;;;;;;34.08;32.50;99084.03;5091629;28;20473;-82
2023/07/01 10:14:05;;;;;;;1.70;1.08;;;;;;;33.86;34.20;99071.31;5091171;28;20189;-81
2023/07/01 10:16:31;;;;;;;1.88;1.40;;;;;;;33.99;31.90;99071.50;5091495;28;20339;-81
2023/07/01 10:18:57;;;;;;;2.83;1.73;;;;;;;34.49;31.90;99071.72;5092909;28;20024;-82
2023/07/01 10:21:31;;;;;;;3.05;1.95;;;;;;;34.63;31.67;99059.03;5090701;28;20032;-81
2023/07/01 10:24:00;;;;;;;;;;;;;;;34.94;30.36;99083.41;5089514;28;20027;-82
2023/07/01 10:26:35;;;;;;;4.35;1.10;;;;;;;34.69;28.83;99066.47;5083980;28;20366;-81
2023/07/01 10:29:30;;;;;;;1.83;1.38;;;;;;;34.56;30.84;99075.41;5088527;28;20088;-83
2023/07/01 10:32:13;;;;;;;1.98;1.33;;;;;;;34.42;28.37;99059.88;5094768;28;20028;-81
2023/07/01 10:34:54;;;;;;;1.88;1.20;;;;;;;34.59;28.66;99063.22;5086058;28;20586;-83
2023/07/01 10:37:25;;;;;;;3.05;1.45;;;;;;;34.62;29.15;99021.75;5092457;28;20038;-84
2023/07/01 10:39:51;;;;;;;2.50;1.58;;;;;;;34.89;29.67;99036.56;5094109;28;20027;-82
2023/07/01 10:42:46;;;;;;;2.55;1.55;;;;;;;34.32;28.97;99026.47;5095896;28;20054;-82
2023/07/01 10:45:11;;;;;;;1.33;1.08;;;;;;;34.63;26.27;99031.66;4992684;28;20613;-82
2023/07/01 10:47:44;;;;;;;1.40;1.08;;;;;;;34.71;23.93;99031.53;5012606;28;20167;-82
2023/07/01 10:50:19;;;;;;;2.97;0.90;;;;;;;34.89;25.84;99016.56;5015356;28;20049;-82
2023/07/01 10:52:59;;;;;;;8.20;1.58;;;;;;;34.93;26.84;99028.81;5011044;28;20038;-82
2023/07/01 10:55:44;;;;;;;2.05;1.58;;;;;;;35.08;25.94;99015.88;5007817;28;20112;-80
2023/07/01 10:58:22;;;;;;;2.15;1.15;;;;;;;35.04;26.65;99011.84;5008120;28;20099;-81
2023/07/01 11:00:55;;;;;;;1.63;0.98;;;;;;;34.60;28.26;98986.34;4984559;28;20933;-81
2023/07/01 11:03:35;;;;;;;2.88;2.08;;;;;;;34.78;28.21;99013.28;5012257;28;20081;-81
2023/07/01 11:06:02;;;;;;;3.50;1.00;;;;;;;34.41;27.79;98997.94;5009173;28;20042;-82
2023/07/01 11:08:29;;;;;;;1.45;1.13;;;;;;;34.31;27.11;98981.84;5005368;28;20193;-81
2023/07/01 11:10:54;;;;;;;1.30;1.02;;;;;;;34.27;27.40;98957.81;5019794;28;20060;-82
2023/07/01 11:13:21;;;;;;;1.75;1.15;;;;;;;34.41;26.33;98978.78;5015009;28;20369;-82
2023/07/01 11:16:06;;;;;;;1.40;0.80;;;;;;;34.35;26.42;98985.88;5010293;28;21288;-82
2023/07/01 11:18:52;;;;;;;2.83;1.83;;;;;;;34.83;26.09;98954.34;5012212;28;20054;-82
2023/07/01 11:21:23;;;;;;;1.02;0.85;;;;;;;34.46;25.59;98967.25;5036535;28;20096;-82
2023/07/01 11:23:53;;;;;;;2.10;1.25;;;;;;;35.06;23.81;98970.53;5092810;28;20040;-82
2023/07/01 11:26:23;;;;;;;0.95;0.77;;;;;;;34.90;26.42;98968.94;5093618;28;20489;-82
2023/07/01 11:28:49;;;;;;;1.55;1.15;;;;;;;34.94;23.46;98943.69;5090243;28;20036;-81
2023/07/01 11:31:22;;;;;;;1.15;0.77;;;;;;;34.65;25.72;98957.53;5096097;28;20028;-82
2023/07/01 11:33:56;;;;;;;2.60;1.52;;;;;;;34.27;26.32;98919.50;5091505;28;20028;-82
2023/07/01 11:36:43;;;;;;;1.90;0.88;;;;;;;34.93;24.11;98957.59;5073264;28;20132;-82